Serenade Of The Seas — C6FV8 — position and weather

sailwx.info

Track history (hours):
 
Tides and Currents Weather Stations Pressure Air Temp Water Temp Dewpoint Dewpoint Depression Visibility Wind Speed Wind Dir Waves Ship Positions

Serenade Of The Seas

Operator: Royal Caribbean Cruises Ltd

Last reported at 2016-Aug-28 23:33 UTC. Time now 2016-Aug-29 00:08 UTC.
Position N 57°52' E 011°01'.

Length 294 m; draft 8.5 m.

Type: Ship. MMSI: 311492000.

Date/timePositionNaut miles runAvg speedWind from/ knotsBaromVisibWave heightAir tempDewpointWater temp
2016-Aug-28 23:33N 57°52' E 011°01'1818.3
2016-Aug-28 22:33N 57°36' E 011°19'1818.3
2016-Aug-28 21:34N 57°19' E 011°32'1918.4
2016-Aug-28 20:33N 57°02' E 011°44'1918.7
2016-Aug-28 19:33N 56°44' E 011°56'1716.0
2016-Aug-28 18:30N 56°28' E 012°03'2016.3
2016-Aug-28 17:18N 56°12' E 012°23'1317.7
2016-Aug-28 16:34N 56°02' E 012°40'1716.5
2016-Aug-28 15:34N 55°46' E 012°42'4 3.9
2016-Aug-28 14:31N 55°43' E 012°37'0 0.0
2016-Aug-28 13:31N 55°43' E 012°37'0 0.0
2016-Aug-28 12:31N 55°43' E 012°37'0 0.0
2016-Aug-28 11:31N 55°43' E 012°37'0 0.0
2016-Aug-28 10:31N 55°43' E 012°37'0 0.0
2016-Aug-28 09:31N 55°43' E 012°37'0 0.0
2016-Aug-28 08:31N 55°43' E 012°37'0 0.0
2016-Aug-28 07:31N 55°43' E 012°37'0 0.0
2016-Aug-28 06:31N 55°43' E 012°37'0 0.0
2016-Aug-28 05:31N 55°43' E 012°37'0 0.4
2016-Aug-28 04:33N 55°43' E 012°38'1313.1
2016-Aug-28 03:34N 55°56' E 012°38'1414.2
2016-Aug-28 02:34N 56°09' E 012°27'1716.6
2016-Aug-28 01:33N 56°19' E 012°03'1717.2
2016-Aug-28 00:33N 56°36' E 011°56'1817.8
2016-Aug-27 23:33N 56°53' E 011°47'1818.3
2016-Aug-27 22:33N 57°10' E 011°35'1817.8
2016-Aug-27 21:34N 57°27' E 011°24'1717.3
2016-Aug-27 20:34N 57°39' E 011°01'1616.4
2016-Aug-27 19:33N 57°50' E 010°38'2017.6
2016-Aug-27 18:27N 57°50' E 010°01'1717.6
2016-Aug-27 17:30N 57°50' E 009°30'97 5.1
2016-Aug-26 22:31N 57°46' E 006°29'1312.7
2016-Aug-26 21:30N 57°54' E 006°10'3714.5
2016-Aug-26 19:00N 58°18' E 005°18'1910.3 270 / 27 5.4 2.016.0 17.0
2016-Aug-26 17:09N 58°32' E 004°54'  
2016-Aug-22 22:16N 59°53' E 004°20'1013.6
2016-Aug-22 21:34N 59°43' E 004°19'1413.7
2016-Aug-22 20:33N 59°29' E 004°20'1312.9
2016-Aug-22 19:33N 59°18' E 004°32'1413.7
2016-Aug-22 18:32N 59°09' E 004°53'1212.6
2016-Aug-22 17:33N 59°05' E 005°16'10 9.9
2016-Aug-22 16:34N 59°04' E 005°35'7 6.8
2016-Aug-22 15:33N 58°58' E 005°44'0 0.0
2016-Aug-22 14:24N 58°58' E 005°44'0 0.0
2016-Aug-22 13:33N 58°58' E 005°44'0 0.0
2016-Aug-22 12:33N 58°58' E 005°44'0 0.0
2016-Aug-22 11:33N 58°58' E 005°44'0 0.0
2016-Aug-22 10:33N 58°58' E 005°44'0 0.0
2016-Aug-22 09:33N 58°58' E 005°44'0 0.0
2016-Aug-22 08:33N 58°58' E 005°44'0 0.0
2016-Aug-22 07:30N 58°58' E 005°44'0 0.0
2016-Aug-22 06:33N 58°58' E 005°44'2 1.6
2016-Aug-22 05:33N 58°60' E 005°42'9 9.5
2016-Aug-22 04:33N 59°06' E 005°29'1010.2
2016-Aug-22 03:33N 59°02' E 005°11'1010.0
2016-Aug-22 02:33N 58°52' E 005°05'1010.2
2016-Aug-22 01:33N 58°42' E 005°00'1010.1
2016-Aug-22 00:33N 58°33' E 005°09'1010.2
2016-Aug-21 23:33N 58°24' E 005°18'16 9.9
2016-Aug-21 22:00N 58°12' E 005°36'1610.9 130 / 13 10.8 1.017.0 17.0
2016-Aug-21 20:33N 58°03' E 005°60'1010.4
2016-Aug-21 19:33N 57°56' E 006°15'814.5
2016-Aug-21 19:00N 57°48' E 006°18'715.7 140 / 16 10.8 0.517.0 18.0
2016-Aug-21 18:33N 57°50' E 006°31'1010.3
2016-Aug-21 17:32N 57°48' E 006°49'2510.0
2016-Aug-21 15:00N 57°42' E 007°36'7910.6 100 / 10 1.018.0 18.0
2016-Aug-21 07:32N 57°51' E 010°03'1010.4
2016-Aug-21 06:32N 57°50' E 010°23'1110.3
2016-Aug-21 05:30N 57°49' E 010°43'1010.2
2016-Aug-21 04:33N 57°43' E 010°57'1010.2
2016-Aug-21 03:33N 57°36' E 011°11'1010.2
2016-Aug-21 02:33N 57°29' E 011°24'1010.1
2016-Aug-21 01:34N 57°20' E 011°32'1010.2
2016-Aug-21 00:33N 57°10' E 011°38'1010.2
2016-Aug-20 23:32N 57°01' E 011°45'1010.2
2016-Aug-20 22:33N 56°51' E 011°51'1010.2
2016-Aug-20 21:34N 56°41' E 011°56'1010.3
2016-Aug-20 20:33N 56°31' E 011°59'10 9.7
2016-Aug-20 19:32N 56°22' E 012°05'10 9.9
2016-Aug-20 18:31N 56°14' E 012°17'1010.2
2016-Aug-20 17:33N 56°08' E 012°31'1212.0
2016-Aug-20 16:33N 55°58' E 012°42'1628.4
2016-Aug-20 16:00N 55°42' E 012°42'2 5.5 160 / 11 5.4 0.518.0 18.0
2016-Aug-20 15:33N 55°44' E 012°40'2 1.9
2016-Aug-20 14:33N 55°43' E 012°37'0 0.0
2016-Aug-20 13:33N 55°43' E 012°37'0 0.0
2016-Aug-20 12:33N 55°43' E 012°37'0 0.0
2016-Aug-20 11:33N 55°43' E 012°37'0 0.0
2016-Aug-20 10:33N 55°43' E 012°37'0 0.0
2016-Aug-20 09:33N 55°43' E 012°37'0 0.0
2016-Aug-20 08:33N 55°43' E 012°37'0 0.0
2016-Aug-20 07:33N 55°43' E 012°37'0 0.0
2016-Aug-20 06:33N 55°43' E 012°37'0 0.0
2016-Aug-20 05:33N 55°43' E 012°37'1 1.2
2016-Aug-20 04:33N 55°43' E 012°39'1413.9
2016-Aug-20 03:33N 55°57' E 012°40'1313.1
2016-Aug-20 02:33N 56°08' E 012°27'1413.8
2016-Aug-20 01:33N 56°14' E 012°04'3014.6
2016-Aug-19 23:31N 56°08' E 011°12'4517.8
2016-Aug-19 21:00N 55°24' E 010°54'612.0 140 / 10 10.8 0.518.0 19.0
2016-Aug-19 20:29N 55°20' E 011°02'1617.2
2016-Aug-19 19:33N 55°04' E 011°03'1817.6
2016-Aug-19 18:33N 54°48' E 010°52'1616.3
2016-Aug-19 17:33N 54°36' E 011°11'916.5
2016-Aug-19 17:00N 54°30' E 011°24'920.7 120 / 8 10.8 0.518.0 18.0
2016-Aug-19 16:34N 54°28' E 011°39'1717.4
2016-Aug-19 15:33N 54°26' E 012°09'4025.4
2016-Aug-19 14:00N 54°48' E 013°06'2911.8 190 / 81010.010.8 0.517.0 19.0
2016-Aug-19 11:33N 55°02' E 013°50'1716.8
2016-Aug-19 10:33N 55°13' E 014°12'1817.8
2016-Aug-19 09:33N 55°25' E 014°35'1221.3
2016-Aug-19 09:00N 55°30' E 014°54'614.1 330 / 131006.0 5.4 15.0 18.0
2016-Aug-19 08:33N 55°34' E 015°02'  
Track history (hours):
 
Tides and Currents Weather Stations Pressure Air Temp Water Temp Dewpoint Dewpoint Depression Visibility Wind Speed Wind Dir Waves Ship Positions

Serenade Of The Seas

Operator: Royal Caribbean Cruises Ltd

Last reported at 2016-Aug-28 23:33 UTC. Time now 2016-Aug-29 00:08 UTC.
Position N 57°52' E 011°01'.

Length 294 m; draft 8.5 m.

Type: Ship. MMSI: 311492000.

Date/timePositionNaut miles runAvg speedWind from/ knotsBaromVisibWave heightAir tempDewpointWater temp
2016-Aug-28 23:33N 57°52' E 011°01'1818.3
2016-Aug-28 22:33N 57°36' E 011°19'1818.3
2016-Aug-28 21:34N 57°19' E 011°32'1918.4
2016-Aug-28 20:33N 57°02' E 011°44'1918.7
2016-Aug-28 19:33N 56°44' E 011°56'1716.0
2016-Aug-28 18:30N 56°28' E 012°03'2016.3
2016-Aug-28 17:18N 56°12' E 012°23'1317.7
2016-Aug-28 16:34N 56°02' E 012°40'1716.5
2016-Aug-28 15:34N 55°46' E 012°42'4 3.9
2016-Aug-28 14:31N 55°43' E 012°37'0 0.0
2016-Aug-28 13:31N 55°43' E 012°37'0 0.0
2016-Aug-28 12:31N 55°43' E 012°37'0 0.0
2016-Aug-28 11:31N 55°43' E 012°37'0 0.0
2016-Aug-28 10:31N 55°43' E 012°37'0 0.0
2016-Aug-28 09:31N 55°43' E 012°37'0 0.0
2016-Aug-28 08:31N 55°43' E 012°37'0 0.0
2016-Aug-28 07:31N 55°43' E 012°37'0 0.0
2016-Aug-28 06:31N 55°43' E 012°37'0 0.0
2016-Aug-28 05:31N 55°43' E 012°37'0 0.4
2016-Aug-28 04:33N 55°43' E 012°38'1313.1
2016-Aug-28 03:34N 55°56' E 012°38'1414.2
2016-Aug-28 02:34N 56°09' E 012°27'1716.6
2016-Aug-28 01:33N 56°19' E 012°03'1717.2
2016-Aug-28 00:33N 56°36' E 011°56'1817.8
2016-Aug-27 23:33N 56°53' E 011°47'1818.3
2016-Aug-27 22:33N 57°10' E 011°35'1817.8
2016-Aug-27 21:34N 57°27' E 011°24'1717.3
2016-Aug-27 20:34N 57°39' E 011°01'1616.4
2016-Aug-27 19:33N 57°50' E 010°38'2017.6
2016-Aug-27 18:27N 57°50' E 010°01'1717.6
2016-Aug-27 17:30N 57°50' E 009°30'97 5.1
2016-Aug-26 22:31N 57°46' E 006°29'1312.7
2016-Aug-26 21:30N 57°54' E 006°10'3714.5
2016-Aug-26 19:00N 58°18' E 005°18'1910.3 270 / 27 5.4 2.016.0 17.0
2016-Aug-26 17:09N 58°32' E 004°54'  
2016-Aug-22 22:16N 59°53' E 004°20'1013.6
2016-Aug-22 21:34N 59°43' E 004°19'1413.7
2016-Aug-22 20:33N 59°29' E 004°20'1312.9
2016-Aug-22 19:33N 59°18' E 004°32'1413.7
2016-Aug-22 18:32N 59°09' E 004°53'1212.6
2016-Aug-22 17:33N 59°05' E 005°16'10 9.9
2016-Aug-22 16:34N 59°04' E 005°35'7 6.8
2016-Aug-22 15:33N 58°58' E 005°44'0 0.0
2016-Aug-22 14:24N 58°58' E 005°44'0 0.0
2016-Aug-22 13:33N 58°58' E 005°44'0 0.0
2016-Aug-22 12:33N 58°58' E 005°44'0 0.0
2016-Aug-22 11:33N 58°58' E 005°44'0 0.0
2016-Aug-22 10:33N 58°58' E 005°44'0 0.0
2016-Aug-22 09:33N 58°58' E 005°44'0 0.0
2016-Aug-22 08:33N 58°58' E 005°44'0 0.0
2016-Aug-22 07:30N 58°58' E 005°44'0 0.0
2016-Aug-22 06:33N 58°58' E 005°44'2 1.6
2016-Aug-22 05:33N 58°60' E 005°42'9 9.5
2016-Aug-22 04:33N 59°06' E 005°29'1010.2
2016-Aug-22 03:33N 59°02' E 005°11'1010.0
2016-Aug-22 02:33N 58°52' E 005°05'1010.2
2016-Aug-22 01:33N 58°42' E 005°00'1010.1
2016-Aug-22 00:33N 58°33' E 005°09'1010.2
2016-Aug-21 23:33N 58°24' E 005°18'16 9.9
2016-Aug-21 22:00N 58°12' E 005°36'1610.9 130 / 13 10.8 1.017.0 17.0
2016-Aug-21 20:33N 58°03' E 005°60'1010.4
2016-Aug-21 19:33N 57°56' E 006°15'814.5
2016-Aug-21 19:00N 57°48' E 006°18'715.7 140 / 16 10.8 0.517.0 18.0
2016-Aug-21 18:33N 57°50' E 006°31'1010.3
2016-Aug-21 17:32N 57°48' E 006°49'2510.0
2016-Aug-21 15:00N 57°42' E 007°36'7910.6 100 / 10 1.018.0 18.0
2016-Aug-21 07:32N 57°51' E 010°03'1010.4
2016-Aug-21 06:32N 57°50' E 010°23'1110.3
2016-Aug-21 05:30N 57°49' E 010°43'1010.2
2016-Aug-21 04:33N 57°43' E 010°57'1010.2
2016-Aug-21 03:33N 57°36' E 011°11'1010.2
2016-Aug-21 02:33N 57°29' E 011°24'1010.1
2016-Aug-21 01:34N 57°20' E 011°32'1010.2
2016-Aug-21 00:33N 57°10' E 011°38'1010.2
2016-Aug-20 23:32N 57°01' E 011°45'1010.2
2016-Aug-20 22:33N 56°51' E 011°51'1010.2
2016-Aug-20 21:34N 56°41' E 011°56'1010.3
2016-Aug-20 20:33N 56°31' E 011°59'10 9.7
2016-Aug-20 19:32N 56°22' E 012°05'10 9.9
2016-Aug-20 18:31N 56°14' E 012°17'1010.2
2016-Aug-20 17:33N 56°08' E 012°31'1212.0
2016-Aug-20 16:33N 55°58' E 012°42'1628.4
2016-Aug-20 16:00N 55°42' E 012°42'2 5.5 160 / 11 5.4 0.518.0 18.0
2016-Aug-20 15:33N 55°44' E 012°40'2 1.9
2016-Aug-20 14:33N 55°43' E 012°37'0 0.0
2016-Aug-20 13:33N 55°43' E 012°37'0 0.0
2016-Aug-20 12:33N 55°43' E 012°37'0 0.0
2016-Aug-20 11:33N 55°43' E 012°37'0 0.0
2016-Aug-20 10:33N 55°43' E 012°37'0 0.0
2016-Aug-20 09:33N 55°43' E 012°37'0 0.0
2016-Aug-20 08:33N 55°43' E 012°37'0 0.0
2016-Aug-20 07:33N 55°43' E 012°37'0 0.0
2016-Aug-20 06:33N 55°43' E 012°37'0 0.0
2016-Aug-20 05:33N 55°43' E 012°37'1 1.2
2016-Aug-20 04:33N 55°43' E 012°39'1413.9
2016-Aug-20 03:33N 55°57' E 012°40'1313.1
2016-Aug-20 02:33N 56°08' E 012°27'1413.8
2016-Aug-20 01:33N 56°14' E 012°04'3014.6
2016-Aug-19 23:31N 56°08' E 011°12'4517.8
2016-Aug-19 21:00N 55°24' E 010°54'612.0 140 / 10 10.8 0.518.0 19.0
2016-Aug-19 20:29N 55°20' E 011°02'1617.2
2016-Aug-19 19:33N 55°04' E 011°03'1817.6
2016-Aug-19 18:33N 54°48' E 010°52'1616.3
2016-Aug-19 17:33N 54°36' E 011°11'916.5
2016-Aug-19 17:00N 54°30' E 011°24'920.7 120 / 8 10.8 0.518.0 18.0
2016-Aug-19 16:34N 54°28' E 011°39'1717.4
2016-Aug-19 15:33N 54°26' E 012°09'4025.4
2016-Aug-19 14:00N 54°48' E 013°06'2911.8 190 / 81010.010.8 0.517.0 19.0
2016-Aug-19 11:33N 55°02' E 013°50'1716.8
2016-Aug-19 10:33N 55°13' E 014°12'1817.8
2016-Aug-19 09:33N 55°25' E 014°35'1221.3
2016-Aug-19 09:00N 55°30' E 014°54'614.1 330 / 131006.0 5.4 15.0 18.0
2016-Aug-19 08:33N 55°34' E 015°02'  

Dump ship's entire track history